createdAt,value
2023-01-04T10:55:29.439Z,12.68
2023-01-04T10:58:50.214Z,12.55
2023-01-04T11:02:02.205Z,12.68
2023-01-04T11:04:57.595Z,12.83
2023-01-04T11:07:58.017Z,12.95
2023-01-04T11:10:36.223Z,12.72
2023-01-04T11:13:04.282Z,12.94
2023-01-04T11:15:32.359Z,13.01
2023-01-04T11:18:03.163Z,13.02
2023-01-04T11:20:37.671Z,12.75
2023-01-04T11:23:08.392Z,13.26
2023-01-04T11:25:42.266Z,13.17
2023-01-04T11:28:19.691Z,13.12
2023-01-04T11:31:14.525Z,13.00
2023-01-04T11:33:59.687Z,12.86
2023-01-04T11:36:34.043Z,13.08
2023-01-04T11:39:02.443Z,12.99
2023-01-04T11:41:29.986Z,13.06
2023-01-04T11:44:06.313Z,13.12
2023-01-04T11:46:34.988Z,13.31
2023-01-04T11:49:02.539Z,13.31
2023-01-04T11:51:29.961Z,13.20
2023-01-04T11:54:15.453Z,13.31
2023-01-04T11:57:10.738Z,13.40
2023-01-04T11:59:39.168Z,13.50
2023-01-04T12:02:42.222Z,13.32
2023-01-04T12:05:24.511Z,13.44
2023-01-04T12:07:53.806Z,13.25
2023-01-04T12:10:27.488Z,13.52
2023-01-04T12:12:56.641Z,13.48
2023-01-04T12:15:33.479Z,13.44
2023-01-04T12:18:15.736Z,13.43
2023-01-04T12:20:43.924Z,13.36
2023-01-04T12:23:13.401Z,13.13
2023-01-04T12:25:50.585Z,13.42
2023-01-04T12:28:41.284Z,13.43
2023-01-04T12:31:21.655Z,13.54
2023-01-04T12:33:55.302Z,13.18
2023-01-04T12:36:37.996Z,13.12
2023-01-04T12:39:29.505Z,13.12
2023-01-04T12:42:03.812Z,13.21
2023-01-04T12:44:37.432Z,13.11
2023-01-04T12:47:36.655Z,13.27
2023-01-04T12:50:13.576Z,12.99
2023-01-04T12:53:29.890Z,13.04
2023-01-04T12:55:58.234Z,12.95
2023-01-04T13:01:27.027Z,13.07
2023-01-04T13:04:05.127Z,13.08
2023-01-04T13:06:42.858Z,12.91
2023-01-04T13:09:23.770Z,12.96
2023-01-04T13:12:14.333Z,13.00
2023-01-04T13:14:50.220Z,12.88
2023-01-04T13:17:23.852Z,13.12
2023-01-04T13:19:51.574Z,13.18
2023-01-04T13:22:28.944Z,13.61
2023-01-04T13:24:59.373Z,13.57
2023-01-04T13:27:27.623Z,13.61
2023-01-04T13:29:55.770Z,13.43
2023-01-04T13:32:46.867Z,13.47
2023-01-04T13:35:21.117Z,12.96
2023-01-04T13:37:51.481Z,12.76
2023-01-04T13:40:21.845Z,12.58
2023-01-04T13:43:15.450Z,12.61
2023-01-04T13:45:51.393Z,12.63
2023-01-04T13:48:22.458Z,12.71
2023-01-04T13:51:04.782Z,12.85
2023-01-04T13:53:33.057Z,12.57
2023-01-04T13:56:03.262Z,12.79
2023-01-04T13:58:33.675Z,12.66
2023-01-04T14:01:25.283Z,12.88
2023-01-04T14:04:19.563Z,12.69
2023-01-04T14:06:49.951Z,12.71
2023-01-04T14:09:21.045Z,12.45
2023-01-04T14:14:53.884Z,12.29
2023-01-04T14:17:24.111Z,12.22
2023-01-04T14:20:01.986Z,12.15
2023-01-04T14:22:36.765Z,11.80
2023-01-04T14:25:34.300Z,11.91
2023-01-04T14:28:41.822Z,11.81
2023-01-04T14:31:21.087Z,12.16
2023-01-04T14:33:51.328Z,11.95
2023-01-04T14:36:20.802Z,11.92
2023-01-04T14:39:19.476Z,12.11
2023-01-04T14:41:49.907Z,11.80
2023-01-04T14:44:24.335Z,12.04
2023-01-04T14:46:57.224Z,12.03
2023-01-04T14:49:28.402Z,11.87
2023-01-04T14:51:58.662Z,11.61
2023-01-04T14:54:27.820Z,11.72
2023-01-04T14:56:58.463Z,11.71
2023-01-04T14:59:27.162Z,11.84
2023-01-04T15:05:01.365Z,11.56
2023-01-04T15:07:41.861Z,11.66
2023-01-04T15:10:30.001Z,11.69
2023-01-04T15:13:02.966Z,11.38
2023-01-04T15:15:37.879Z,11.17
2023-01-04T15:18:06.374Z,11.36
2023-01-04T15:20:41.765Z,11.25
2023-01-04T15:23:09.387Z,11.10
2023-01-04T15:25:41.228Z,11.09
2023-01-04T15:28:13.651Z,11.04
2023-01-04T15:30:49.307Z,11.10
2023-01-04T15:34:17.954Z,11.00
2023-01-04T15:37:23.779Z,10.93
2023-01-04T15:44:40.954Z,11.08
2023-01-04T15:47:10.904Z,10.98
2023-01-04T15:49:46.820Z,10.96
2023-01-04T15:52:15.971Z,10.91
2023-01-04T15:54:46.682Z,11.05
2023-01-04T15:57:18.920Z,11.12
2023-01-04T15:59:49.850Z,11.20
2023-01-04T16:02:27.408Z,11.06
2023-01-04T16:05:37.764Z,11.14
2023-01-04T16:08:18.225Z,11.08
2023-01-04T16:10:53.708Z,11.00
2023-01-04T16:13:26.190Z,11.01
2023-01-04T16:16:00.897Z,10.96
2023-01-04T16:18:33.052Z,10.96
2023-01-04T16:21:39.331Z,11.02
2023-01-04T16:25:08.286Z,10.92
2023-01-04T16:31:51.745Z,11.21
2023-01-04T16:41:46.519Z,11.15
2023-01-04T16:44:14.436Z,11.30
2023-01-04T16:46:48.240Z,11.40
2023-01-04T16:49:47.442Z,11.35
2023-01-04T16:52:39.250Z,11.28
2023-01-04T16:58:21.147Z,11.22
2023-01-04T17:00:57.422Z,11.11
2023-01-04T17:03:44.123Z,11.03
2023-01-04T17:06:23.192Z,10.93
2023-01-04T17:08:55.913Z,10.98
2023-01-04T17:25:05.884Z,10.90
2023-01-04T17:27:37.343Z,10.79
2023-01-04T17:30:10.068Z,10.90
2023-01-04T17:32:51.088Z,11.00
2023-01-04T17:35:33.801Z,10.93
2023-01-04T17:38:07.037Z,10.96
2023-01-04T17:40:47.194Z,11.02
2023-01-04T17:43:25.533Z,10.99
2023-01-04T17:45:53.493Z,11.04
2023-01-04T17:48:26.151Z,11.02
2023-01-04T17:50:56.028Z,11.04
2023-01-04T17:53:24.211Z,10.92
2023-01-04T17:55:52.221Z,10.69
2023-01-04T17:58:23.546Z,10.78
2023-01-04T18:00:53.837Z,10.79
2023-01-04T18:03:22.066Z,10.86
2023-01-04T18:06:24.273Z,10.86
2023-01-04T18:08:50.053Z,10.82
2023-01-04T18:11:22.892Z,10.77
2023-01-04T18:14:00.905Z,10.83
2023-01-04T18:17:11.033Z,10.81
2023-01-04T18:19:50.250Z,10.69
2023-01-04T18:23:00.576Z,10.79
2023-01-04T18:25:39.049Z,10.71
2023-01-04T18:31:51.983Z,10.68
2023-01-04T18:34:27.943Z,10.87
2023-01-04T18:36:56.590Z,10.76
2023-01-04T18:39:28.622Z,10.85
2023-01-04T18:41:56.984Z,10.90
2023-01-04T18:44:35.448Z,10.78
2023-01-04T18:47:08.065Z,10.87
2023-01-04T18:49:44.246Z,10.83
2023-01-04T18:52:20.549Z,10.76
2023-01-04T18:55:26.461Z,10.72
2023-01-04T18:58:24.290Z,10.72
2023-01-04T19:01:26.696Z,10.84
2023-01-04T19:04:06.344Z,10.78
2023-01-04T19:07:14.715Z,10.66
2023-01-04T19:09:44.364Z,10.76
2023-01-04T19:15:16.077Z,10.75
2023-01-04T19:17:47.671Z,10.74
2023-01-04T19:20:49.700Z,10.79
2023-01-04T19:23:48.888Z,10.68
2023-01-04T19:33:33.498Z,10.76
2023-01-04T19:36:01.711Z,10.70
2023-01-04T19:38:30.143Z,10.84
2023-01-04T19:44:07.071Z,10.73
2023-01-04T19:46:53.693Z,10.80
2023-01-04T19:49:23.266Z,10.68
2023-01-04T20:00:34.508Z,10.77
2023-01-04T20:03:04.406Z,10.74
2023-01-04T20:05:35.669Z,10.61
2023-01-04T20:08:04.299Z,10.71
2023-01-04T20:10:33.206Z,10.61
2023-01-04T20:13:02.129Z,10.55
2023-01-04T20:15:31.035Z,10.62
2023-01-04T20:18:00.086Z,10.70
2023-01-04T20:20:28.443Z,10.80
2023-01-04T20:22:57.266Z,10.70
2023-01-04T20:25:25.153Z,10.64
2023-01-04T20:27:52.725Z,10.71
2023-01-04T20:30:20.479Z,10.68
2023-01-04T20:32:52.208Z,10.61
2023-01-04T20:35:29.835Z,10.62
2023-01-04T20:37:58.067Z,10.63
2023-01-04T20:40:28.310Z,10.55
2023-01-04T20:43:16.025Z,10.56
2023-01-04T20:45:47.148Z,10.67
2023-01-04T20:48:17.323Z,10.62
2023-01-04T20:50:46.768Z,10.59
2023-01-04T20:53:17.615Z,10.55
2023-01-04T20:55:52.368Z,10.60
2023-01-04T20:58:27.552Z,10.29
2023-01-04T21:00:57.541Z,10.43
2023-01-04T21:03:25.543Z,10.40
2023-01-04T21:05:57.271Z,10.20
2023-01-04T21:08:30.928Z,10.43
2023-01-04T21:10:59.770Z,10.44
2023-01-04T21:13:28.751Z,10.45
2023-01-04T21:15:57.447Z,10.30
2023-01-04T21:18:28.921Z,10.26
2023-01-04T21:21:00.495Z,10.13
2023-01-04T21:23:30.109Z,10.14
2023-01-04T21:26:08.279Z,10.21
2023-01-04T21:28:36.673Z,10.28
2023-01-04T21:31:11.755Z,10.20
2023-01-04T21:33:39.796Z,10.13
2023-01-04T21:36:16.464Z,10.03
2023-01-04T21:38:44.523Z,10.14
2023-01-04T21:41:16.465Z,10.09
2023-01-04T21:43:52.109Z,10.12
2023-01-04T21:46:19.951Z,10.07
2023-01-04T21:48:48.023Z,10.16
2023-01-04T21:51:15.820Z,10.24
2023-01-04T21:53:43.512Z,10.05
2023-01-04T21:56:19.700Z,10.15
2023-01-04T21:58:47.703Z,10.17
2023-01-04T22:01:21.778Z,10.24
2023-01-04T22:03:51.345Z,10.25
2023-01-04T22:06:21.108Z,10.16
2023-01-04T22:08:50.920Z,10.31
2023-01-04T22:11:22.357Z,10.24
2023-01-04T22:14:59.205Z,10.27
2023-01-04T22:17:26.940Z,10.08
2023-01-04T22:20:04.063Z,10.21
2023-01-04T22:22:31.824Z,10.24
2023-01-04T22:24:59.498Z,10.27
2023-01-04T22:27:27.210Z,10.09
2023-01-04T22:29:56.393Z,9.90
2023-01-04T22:32:24.645Z,9.99
2023-01-04T22:34:52.380Z,9.93
2023-01-04T22:37:21.272Z,9.91
2023-01-04T22:39:48.944Z,9.90
2023-01-04T22:42:16.687Z,9.96
2023-01-04T22:44:44.342Z,10.03
2023-01-04T22:47:12.119Z,10.14
2023-01-04T22:49:40.984Z,10.08
2023-01-04T22:52:10.705Z,9.96
2023-01-04T22:54:38.582Z,10.09
2023-01-04T22:57:09.013Z,9.97
2023-01-04T22:59:36.857Z,9.88
2023-01-04T23:02:04.764Z,9.80
2023-01-04T23:04:35.902Z,9.84
2023-01-04T23:07:15.589Z,9.91
2023-01-04T23:09:45.471Z,9.77
2023-01-04T23:12:13.056Z,9.68
2023-01-04T23:14:40.673Z,9.59
2023-01-04T23:17:08.224Z,9.40
2023-01-04T23:19:35.825Z,9.46
2023-01-04T23:22:04.580Z,9.51
2023-01-04T23:25:12.422Z,9.20
2023-01-04T23:27:54.127Z,9.16
2023-01-04T23:30:21.737Z,9.23
2023-01-04T23:32:49.257Z,9.25
2023-01-04T23:35:16.904Z,9.33
2023-01-04T23:37:44.531Z,9.46
2023-01-04T23:40:19.532Z,9.59
2023-01-04T23:42:47.156Z,9.47
2023-01-04T23:45:15.551Z,9.45
2023-01-04T23:47:43.075Z,9.42
2023-01-04T23:50:10.713Z,9.49
2023-01-04T23:52:38.430Z,9.39
2023-01-04T23:55:06.626Z,9.51
2023-01-04T23:57:34.303Z,9.36
